TUA weather

Teniente Coronel Luis a Mantilla Airport
Tulcán, Carchi Province, Ecuador

Public forecast

Using degrees Celsius for public forecast. Weather courtesy of forecast.io.

METAR (pilot weather report)

Report is more than 6 hours old.

Retrieved 2019/08/23 21:00 UTC (22 hours ago):

SETU 232100Z 12008KT 9999 BKN020 13/07 Q1031

TAF (pilot weather forecast)

Forecast is more than 12 hours old.

Retrieved 2018/04/06 18:33 UTC (1 year ago):

TAF SPJC 061700Z 0618/0718 25008KT CAVOK TX26/0618Z TN18/0711ZLVA0883 061730 GG KWBCYMYX 061730 SEQUYZYX SPEQ SEQU 061728 SPECI SETU 061728Z 07006KT 9999 -TSRA FEW020CB BKN023 CB OVER STN